Terminal Aerodrome Forecast
Issued by NWS Greer, SC

Home | Current Version | Previous Version | Text Only | Print | Product List | Glossary On
Versions: 1 2 3 4 5 6 7 8 9 10 11 12 13 14 15 16 17 18 19 20 21 22 23 24 25 26 27 28 29 30 31 32 33 34 35 36 37 38 39 40
000
FTUS42 KGSP 280520
TAFAVL
TAF
KAVL 280520Z 2806/2906 32010G18KT P6SM FEW020 OVC040
      TEMPO 2806/2810 6SM -SN BKN030
     FM281000 32012G20KT P6SM SCT045
     FM281400 32015G22KT P6SM SCT200
     FM290000 33007KT P6SM SKC=

USA.gov is the U.S. government's official web portal to all federal, state and local government web resources and services.